sensor_id;sensor_type;location;lat;lon;timestamp;pressure;altitude;pressure_sealevel;temperature;humidity
6345;BME280;3205;42.666;23.264;2023-02-10T00:01:37;96144.75;;;-6.33;100.00
6345;BME280;3205;42.666;23.264;2023-02-10T00:04:04;96136.63;;;-6.37;100.00
6345;BME280;3205;42.666;23.264;2023-02-10T00:06:31;96139.50;;;-6.46;100.00
6345;BME280;3205;42.666;23.264;2023-02-10T00:08:59;96137.13;;;-6.48;100.00
6345;BME280;3205;42.666;23.264;2023-02-10T00:11:27;96129.78;;;-6.51;100.00
6345;BME280;3205;42.666;23.264;2023-02-10T00:14:08;96122.38;;;-6.60;100.00
6345;BME280;3205;42.666;23.264;2023-02-10T00:16:34;96131.22;;;-6.69;100.00
6345;BME280;3205;42.666;23.264;2023-02-10T00:19:01;96127.47;;;-6.66;100.00
6345;BME280;3205;42.666;23.264;2023-02-10T00:21:27;96131.03;;;-6.67;100.00
6345;BME280;3205;42.666;23.264;2023-02-10T00:23:53;96128.47;;;-6.67;100.00
6345;BME280;3205;42.666;23.264;2023-02-10T00:26:19;96117.97;;;-6.66;100.00
6345;BME280;3205;42.666;23.264;2023-02-10T00:28:46;96123.97;;;-6.59;100.00
6345;BME280;3205;42.666;23.264;2023-02-10T00:31:14;96125.81;;;-6.53;100.00
6345;BME280;3205;42.666;23.264;2023-02-10T00:33:41;96125.56;;;-6.58;100.00
6345;BME280;3205;42.666;23.264;2023-02-10T00:36:09;96123.00;;;-6.58;100.00
6345;BME280;3205;42.666;23.264;2023-02-10T00:38:36;96122.78;;;-6.63;100.00
6345;BME280;3205;42.666;23.264;2023-02-10T00:41:03;96117.75;;;-6.71;100.00
6345;BME280;3205;42.666;23.264;2023-02-10T00:43:29;96113.66;;;-6.65;100.00
6345;BME280;3205;42.666;23.264;2023-02-10T00:45:56;96102.78;;;-6.61;100.00
6345;BME280;3205;42.666;23.264;2023-02-10T00:48:22;96096.41;;;-6.71;100.00
6345;BME280;3205;42.666;23.264;2023-02-10T00:50:49;96105.50;;;-6.69;100.00
6345;BME280;3205;42.666;23.264;2023-02-10T00:53:15;96104.91;;;-6.71;100.00
6345;BME280;3205;42.666;23.264;2023-02-10T00:55:41;96101.91;;;-6.74;100.00
6345;BME280;3205;42.666;23.264;2023-02-10T00:58:09;96096.13;;;-6.76;100.00
6345;BME280;3205;42.666;23.264;2023-02-10T01:00:35;96101.72;;;-6.73;100.00
6345;BME280;3205;42.666;23.264;2023-02-10T01:03:02;96093.25;;;-6.67;100.00
6345;BME280;3205;42.666;23.264;2023-02-10T01:05:28;96087.09;;;-6.72;100.00
6345;BME280;3205;42.666;23.264;2023-02-10T01:07:54;96088.84;;;-6.73;100.00
6345;BME280;3205;42.666;23.264;2023-02-10T01:10:21;96093.94;;;-6.79;100.00
6345;BME280;3205;42.666;23.264;2023-02-10T01:12:47;96091.75;;;-6.82;100.00
6345;BME280;3205;42.666;23.264;2023-02-10T01:15:14;96088.88;;;-6.94;100.00
6345;BME280;3205;42.666;23.264;2023-02-10T01:17:41;96087.09;;;-6.93;100.00
6345;BME280;3205;42.666;23.264;2023-02-10T01:20:09;96086.78;;;-6.84;100.00
6345;BME280;3205;42.666;23.264;2023-02-10T01:22:36;96085.75;;;-6.89;100.00
6345;BME280;3205;42.666;23.264;2023-02-10T01:25:03;96086.59;;;-6.82;100.00
6345;BME280;3205;42.666;23.264;2023-02-10T01:27:32;96078.53;;;-6.79;100.00
6345;BME280;3205;42.666;23.264;2023-02-10T01:29:58;96079.63;;;-6.88;100.00
6345;BME280;3205;42.666;23.264;2023-02-10T01:32:24;96071.50;;;-6.92;100.00
6345;BME280;3205;42.666;23.264;2023-02-10T01:34:52;96084.69;;;-6.95;100.00
6345;BME280;3205;42.666;23.264;2023-02-10T01:37:19;96073.44;;;-6.94;100.00
6345;BME280;3205;42.666;23.264;2023-02-10T01:39:45;96074.38;;;-7.01;100.00
6345;BME280;3205;42.666;23.264;2023-02-10T01:42:12;96070.59;;;-7.05;100.00
6345;BME280;3205;42.666;23.264;2023-02-10T01:45:10;96074.94;;;-7.06;100.00
6345;BME280;3205;42.666;23.264;2023-02-10T01:47:38;96074.88;;;-7.12;100.00
6345;BME280;3205;42.666;23.264;2023-02-10T01:50:05;96068.81;;;-7.05;100.00
6345;BME280;3205;42.666;23.264;2023-02-10T01:52:33;96060.72;;;-7.02;100.00
6345;BME280;3205;42.666;23.264;2023-02-10T01:55:04;96059.75;;;-7.01;100.00
6345;BME280;3205;42.666;23.264;2023-02-10T01:57:33;96059.50;;;-7.06;100.00
6345;BME280;3205;42.666;23.264;2023-02-10T02:00:04;96049.84;;;-7.04;100.00
6345;BME280;3205;42.666;23.264;2023-02-10T02:02:31;96046.03;;;-7.08;100.00
6345;BME280;3205;42.666;23.264;2023-02-10T02:05:01;96042.50;;;-7.07;100.00
6345;BME280;3205;42.666;23.264;2023-02-10T02:07:29;96041.53;;;-7.06;100.00
6345;BME280;3205;42.666;23.264;2023-02-10T02:09:58;96037.59;;;-7.02;100.00
6345;BME280;3205;42.666;23.264;2023-02-10T02:12:30;96035.53;;;-7.13;100.00
6345;BME280;3205;42.666;23.264;2023-02-10T02:15:06;96039.81;;;-7.20;100.00
6345;BME280;3205;42.666;23.264;2023-02-10T02:17:37;96040.38;;;-7.24;100.00
6345;BME280;3205;42.666;23.264;2023-02-10T02:20:35;96037.38;;;-7.28;100.00
6345;BME280;3205;42.666;23.264;2023-02-10T02:23:34;96033.59;;;-7.32;100.00
6345;BME280;3205;42.666;23.264;2023-02-10T02:26:25;96029.19;;;-7.37;100.00
6345;BME280;3205;42.666;23.264;2023-02-10T02:29:09;96034.91;;;-7.35;100.00
6345;BME280;3205;42.666;23.264;2023-02-10T02:31:55;96027.41;;;-7.37;100.00
6345;BME280;3205;42.666;23.264;2023-02-10T02:34:29;96033.94;;;-7.34;100.00
6345;BME280;3205;42.666;23.264;2023-02-10T02:36:58;96036.16;;;-7.32;100.00
6345;BME280;3205;42.666;23.264;2023-02-10T02:39:26;96032.06;;;-7.26;100.00
6345;BME280;3205;42.666;23.264;2023-02-10T02:42:15;96033.47;;;-7.24;100.00
6345;BME280;3205;42.666;23.264;2023-02-10T02:44:43;96034.56;;;-7.32;100.00
6345;BME280;3205;42.666;23.264;2023-02-10T02:47:19;96029.44;;;-7.32;100.00
6345;BME280;3205;42.666;23.264;2023-02-10T02:49:53;96028.69;;;-7.27;100.00
6345;BME280;3205;42.666;23.264;2023-02-10T02:52:29;96020.78;;;-7.25;100.00
6345;BME280;3205;42.666;23.264;2023-02-10T02:55:00;96023.00;;;-7.22;100.00
6345;BME280;3205;42.666;23.264;2023-02-10T02:57:34;96025.50;;;-7.29;100.00
6345;BME280;3205;42.666;23.264;2023-02-10T03:00:05;96022.38;;;-7.24;100.00
6345;BME280;3205;42.666;23.264;2023-02-10T03:02:34;96020.00;;;-7.26;100.00
6345;BME280;3205;42.666;23.264;2023-02-10T03:05:03;96024.19;;;-7.25;100.00
6345;BME280;3205;42.666;23.264;2023-02-10T03:07:29;96017.63;;;-7.27;100.00
6345;BME280;3205;42.666;23.264;2023-02-10T03:09:55;96020.19;;;-7.27;100.00
6345;BME280;3205;42.666;23.264;2023-02-10T03:12:21;96021.59;;;-7.25;100.00
6345;BME280;3205;42.666;23.264;2023-02-10T03:14:47;96023.19;;;-7.24;100.00
6345;BME280;3205;42.666;23.264;2023-02-10T03:17:13;96023.78;;;-7.22;100.00
6345;BME280;3205;42.666;23.264;2023-02-10T03:19:40;96033.72;;;-7.19;100.00
6345;BME280;3205;42.666;23.264;2023-02-10T03:22:07;96028.38;;;-7.38;100.00
6345;BME280;3205;42.666;23.264;2023-02-10T03:24:33;96030.28;;;-7.46;100.00
6345;BME280;3205;42.666;23.264;2023-02-10T03:26:59;96024.34;;;-7.47;100.00
6345;BME280;3205;42.666;23.264;2023-02-10T03:29:27;96023.78;;;-7.42;100.00
6345;BME280;3205;42.666;23.264;2023-02-10T03:31:53;96028.09;;;-7.49;100.00
6345;BME280;3205;42.666;23.264;2023-02-10T03:34:19;96023.50;;;-7.54;100.00
6345;BME280;3205;42.666;23.264;2023-02-10T03:36:46;96025.09;;;-7.53;100.00
6345;BME280;3205;42.666;23.264;2023-02-10T03:39:13;96020.50;;;-7.57;100.00
6345;BME280;3205;42.666;23.264;2023-02-10T03:41:39;96016.53;;;-7.60;100.00
6345;BME280;3205;42.666;23.264;2023-02-10T03:44:05;96015.22;;;-7.70;100.00
6345;BME280;3205;42.666;23.264;2023-02-10T03:46:32;96012.81;;;-7.72;100.00
6345;BME280;3205;42.666;23.264;2023-02-10T03:48:58;95995.59;;;-7.78;100.00
6345;BME280;3205;42.666;23.264;2023-02-10T03:51:24;96003.28;;;-7.78;100.00
6345;BME280;3205;42.666;23.264;2023-02-10T03:53:51;95992.06;;;-7.77;100.00
6345;BME280;3205;42.666;23.264;2023-02-10T03:56:17;95997.19;;;-7.77;100.00
6345;BME280;3205;42.666;23.264;2023-02-10T03:58:44;95998.41;;;-7.73;100.00
6345;BME280;3205;42.666;23.264;2023-02-10T04:01:11;95996.25;;;-7.69;100.00
6345;BME280;3205;42.666;23.264;2023-02-10T04:03:38;95992.72;;;-7.68;100.00
6345;BME280;3205;42.666;23.264;2023-02-10T04:06:05;95992.00;;;-7.62;100.00
6345;BME280;3205;42.666;23.264;2023-02-10T04:08:31;96004.81;;;-7.62;100.00
6345;BME280;3205;42.666;23.264;2023-02-10T04:10:58;95998.38;;;-7.58;100.00
6345;BME280;3205;42.666;23.264;2023-02-10T04:13:25;95995.91;;;-7.66;100.00
6345;BME280;3205;42.666;23.264;2023-02-10T04:16:00;95998.72;;;-7.61;100.00
6345;BME280;3205;42.666;23.264;2023-02-10T04:18:26;95997.38;;;-7.78;100.00
6345;BME280;3205;42.666;23.264;2023-02-10T04:20:52;96002.97;;;-7.89;100.00
6345;BME280;3205;42.666;23.264;2023-02-10T04:23:18;96001.13;;;-7.95;100.00
6345;BME280;3205;42.666;23.264;2023-02-10T04:25:45;96003.69;;;-7.95;100.00
6345;BME280;3205;42.666;23.264;2023-02-10T04:28:12;96007.78;;;-8.01;100.00
6345;BME280;3205;42.666;23.264;2023-02-10T04:30:38;96002.56;;;-8.07;100.00
6345;BME280;3205;42.666;23.264;2023-02-10T04:33:04;96002.38;;;-8.06;100.00
6345;BME280;3205;42.666;23.264;2023-02-10T04:35:31;96007.59;;;-7.99;100.00
6345;BME280;3205;42.666;23.264;2023-02-10T04:37:57;96002.81;;;-8.02;100.00
6345;BME280;3205;42.666;23.264;2023-02-10T04:40:24;96004.84;;;-7.98;100.00
6345;BME280;3205;42.666;23.264;2023-02-10T04:42:51;96002.19;;;-7.90;100.00
6345;BME280;3205;42.666;23.264;2023-02-10T04:45:18;96008.09;;;-7.89;100.00
6345;BME280;3205;42.666;23.264;2023-02-10T04:47:44;96013.59;;;-7.92;100.00
6345;BME280;3205;42.666;23.264;2023-02-10T04:50:12;96011.28;;;-7.87;100.00
6345;BME280;3205;42.666;23.264;2023-02-10T04:52:38;96009.09;;;-7.90;100.00
6345;BME280;3205;42.666;23.264;2023-02-10T04:55:05;96012.25;;;-7.88;100.00
6345;BME280;3205;42.666;23.264;2023-02-10T04:57:31;96012.88;;;-7.86;100.00
6345;BME280;3205;42.666;23.264;2023-02-10T04:59:58;96016.84;;;-7.84;100.00
6345;BME280;3205;42.666;23.264;2023-02-10T05:02:26;96006.97;;;-7.87;100.00
6345;BME280;3205;42.666;23.264;2023-02-10T05:04:52;96016.41;;;-7.87;100.00
6345;BME280;3205;42.666;23.264;2023-02-10T05:07:20;96013.94;;;-7.81;100.00
6345;BME280;3205;42.666;23.264;2023-02-10T05:09:46;96026.88;;;-7.89;100.00
6345;BME280;3205;42.666;23.264;2023-02-10T05:12:12;96022.91;;;-7.91;100.00
6345;BME280;3205;42.666;23.264;2023-02-10T05:14:38;96031.31;;;-7.97;100.00
6345;BME280;3205;42.666;23.264;2023-02-10T05:17:04;96023.97;;;-8.00;100.00
6345;BME280;3205;42.666;23.264;2023-02-10T05:19:32;96026.53;;;-8.00;100.00
6345;BME280;3205;42.666;23.264;2023-02-10T05:21:58;96039.69;;;-8.03;100.00
6345;BME280;3205;42.666;23.264;2023-02-10T05:24:25;96046.06;;;-7.99;100.00
6345;BME280;3205;42.666;23.264;2023-02-10T05:26:51;96047.03;;;-8.00;100.00
6345;BME280;3205;42.666;23.264;2023-02-10T05:29:17;96053.84;;;-7.93;100.00
6345;BME280;3205;42.666;23.264;2023-02-10T05:31:44;96052.72;;;-7.90;100.00
6345;BME280;3205;42.666;23.264;2023-02-10T05:34:10;96053.69;;;-7.91;100.00
6345;BME280;3205;42.666;23.264;2023-02-10T05:36:36;96056.25;;;-7.91;100.00
6345;BME280;3205;42.666;23.264;2023-02-10T05:39:04;96052.09;;;-7.92;100.00
6345;BME280;3205;42.666;23.264;2023-02-10T05:41:48;96065.25;;;-7.81;100.00
6345;BME280;3205;42.666;23.264;2023-02-10T05:44:14;96057.72;;;-7.82;100.00
6345;BME280;3205;42.666;23.264;2023-02-10T05:46:41;96068.84;;;-7.75;100.00
6345;BME280;3205;42.666;23.264;2023-02-10T05:49:07;96063.38;;;-7.72;100.00
6345;BME280;3205;42.666;23.264;2023-02-10T05:51:33;96075.66;;;-7.68;100.00
6345;BME280;3205;42.666;23.264;2023-02-10T05:54:00;96080.22;;;-7.49;100.00
6345;BME280;3205;42.666;23.264;2023-02-10T05:56:26;96072.16;;;-7.46;100.00
6345;BME280;3205;42.666;23.264;2023-02-10T05:58:53;96075.41;;;-7.37;100.00
6345;BME280;3205;42.666;23.264;2023-02-10T06:01:20;96074.19;;;-7.21;100.00
6345;BME280;3205;42.666;23.264;2023-02-10T06:03:46;96074.69;;;-7.11;100.00
6345;BME280;3205;42.666;23.264;2023-02-10T06:06:12;96082.44;;;-7.04;100.00
6345;BME280;3205;42.666;23.264;2023-02-10T06:08:38;96084.47;;;-7.00;100.00
6345;BME280;3205;42.666;23.264;2023-02-10T06:11:05;96084.59;;;-6.87;100.00
6345;BME280;3205;42.666;23.264;2023-02-10T06:13:32;96089.25;;;-6.76;100.00
6345;BME280;3205;42.666;23.264;2023-02-10T06:15:58;96095.34;;;-6.56;100.00
6345;BME280;3205;42.666;23.264;2023-02-10T06:18:26;96100.59;;;-6.37;100.00
6345;BME280;3205;42.666;23.264;2023-02-10T06:20:53;96101.66;;;-5.97;100.00
6345;BME280;3205;42.666;23.264;2023-02-10T06:23:19;96098.44;;;-5.06;100.00
6345;BME280;3205;42.666;23.264;2023-02-10T06:25:46;96104.56;;;-3.78;100.00
6345;BME280;3205;42.666;23.264;2023-02-10T06:28:13;96109.00;;;-2.67;100.00
6345;BME280;3205;42.666;23.264;2023-02-10T06:30:39;96109.00;;;-1.69;100.00
6345;BME280;3205;42.666;23.264;2023-02-10T06:33:05;96114.13;;;-0.98;100.00
6345;BME280;3205;42.666;23.264;2023-02-10T06:35:32;96117.88;;;-0.24;100.00
6345;BME280;3205;42.666;23.264;2023-02-10T06:37:58;96127.16;;;0.41;92.23
6345;BME280;3205;42.666;23.264;2023-02-10T06:40:25;96118.88;;;1.06;81.63
6345;BME280;3205;42.666;23.264;2023-02-10T06:42:51;96117.41;;;1.98;72.13
6345;BME280;3205;42.666;23.264;2023-02-10T06:45:18;96112.38;;;3.26;72.62
6345;BME280;3205;42.666;23.264;2023-02-10T06:47:45;96115.16;;;4.30;68.89
6345;BME280;3205;42.666;23.264;2023-02-10T06:50:11;96117.41;;;5.04;60.79
6345;BME280;3205;42.666;23.264;2023-02-10T06:52:39;96121.06;;;5.79;51.12
6345;BME280;3205;42.666;23.264;2023-02-10T06:55:06;96118.16;;;6.65;48.25
6345;BME280;3205;42.666;23.264;2023-02-10T06:57:32;96123.78;;;7.75;45.33
6345;BME280;3205;42.666;23.264;2023-02-10T07:00:01;96130.59;;;8.57;43.39
6345;BME280;3205;42.666;23.264;2023-02-10T07:02:28;96135.28;;;8.88;41.21
6345;BME280;3205;42.666;23.264;2023-02-10T07:04:55;96127.66;;;8.59;40.52
6345;BME280;3205;42.666;23.264;2023-02-10T07:07:21;96138.28;;;8.20;40.73
6345;BME280;3205;42.666;23.264;2023-02-10T07:09:47;96133.34;;;7.66;40.48
6345;BME280;3205;42.666;23.264;2023-02-10T07:12:13;96128.81;;;7.71;41.15
6345;BME280;3205;42.666;23.264;2023-02-10T07:14:41;96124.91;;;7.64;41.76
6345;BME280;3205;42.666;23.264;2023-02-10T07:17:09;96124.72;;;7.94;41.95
6345;BME280;3205;42.666;23.264;2023-02-10T07:19:35;96124.06;;;7.73;41.63
6345;BME280;3205;42.666;23.264;2023-02-10T07:22:02;96120.50;;;7.54;41.75
6345;BME280;3205;42.666;23.264;2023-02-10T07:24:30;96112.84;;;8.34;40.44
6345;BME280;3205;42.666;23.264;2023-02-10T07:26:58;96121.78;;;8.95;40.13
6345;BME280;3205;42.666;23.264;2023-02-10T07:29:24;96116.72;;;8.08;40.21
6345;BME280;3205;42.666;23.264;2023-02-10T07:31:50;96120.16;;;7.03;41.43
6345;BME280;3205;42.666;23.264;2023-02-10T07:34:17;96124.28;;;7.34;41.28
6345;BME280;3205;42.666;23.264;2023-02-10T07:36:45;96128.03;;;7.13;41.01
6345;BME280;3205;42.666;23.264;2023-02-10T07:39:11;96130.22;;;6.86;41.42
6345;BME280;3205;42.666;23.264;2023-02-10T07:41:38;96117.53;;;7.03;41.37
6345;BME280;3205;42.666;23.264;2023-02-10T07:44:04;96111.94;;;7.29;40.87
6345;BME280;3205;42.666;23.264;2023-02-10T07:46:30;96113.59;;;7.63;41.00
6345;BME280;3205;42.666;23.264;2023-02-10T07:48:56;96110.13;;;7.73;39.68
6345;BME280;3205;42.666;23.264;2023-02-10T07:51:22;96111.91;;;8.54;39.00
6345;BME280;3205;42.666;23.264;2023-02-10T07:53:49;96114.94;;;8.94;38.68
6345;BME280;3205;42.666;23.264;2023-02-10T07:56:15;96124.22;;;9.33;37.87
6345;BME280;3205;42.666;23.264;2023-02-10T07:58:42;96119.06;;;10.07;37.77
6345;BME280;3205;42.666;23.264;2023-02-10T08:01:08;96125.88;;;10.58;36.53
6345;BME280;3205;42.666;23.264;2023-02-10T08:03:35;96128.84;;;10.56;36.14
6345;BME280;3205;42.666;23.264;2023-02-10T08:06:01;96127.59;;;11.53;34.78
6345;BME280;3205;42.666;23.264;2023-02-10T08:08:28;96134.16;;;11.15;34.40
6345;BME280;3205;42.666;23.264;2023-02-10T08:10:55;96127.97;;;11.06;34.74
6345;BME280;3205;42.666;23.264;2023-02-10T08:13:21;96122.81;;;11.55;34.04
6345;BME280;3205;42.666;23.264;2023-02-10T08:15:47;96115.72;;;12.56;33.50
6345;BME280;3205;42.666;23.264;2023-02-10T08:18:13;96115.41;;;13.48;32.67
6345;BME280;3205;42.666;23.264;2023-02-10T08:20:43;96110.50;;;13.98;31.47
6345;BME280;3205;42.666;23.264;2023-02-10T08:23:13;96100.69;;;15.11;30.93
6345;BME280;3205;42.666;23.264;2023-02-10T08:25:40;96105.38;;;15.23;29.52
6345;BME280;3205;42.666;23.264;2023-02-10T08:28:07;96105.03;;;15.61;29.27
6345;BME280;3205;42.666;23.264;2023-02-10T08:30:33;96103.28;;;16.35;29.23
6345;BME280;3205;42.666;23.264;2023-02-10T08:32:59;96109.00;;;16.98;28.76
6345;BME280;3205;42.666;23.264;2023-02-10T08:35:25;96111.00;;;17.13;27.51
6345;BME280;3205;42.666;23.264;2023-02-10T08:37:52;96115.69;;;15.61;28.24
6345;BME280;3205;42.666;23.264;2023-02-10T08:40:19;96113.13;;;14.82;29.64
6345;BME280;3205;42.666;23.264;2023-02-10T08:42:46;96104.97;;;15.70;28.50
6345;BME280;3205;42.666;23.264;2023-02-10T08:45:13;96106.72;;;15.37;28.57
6345;BME280;3205;42.666;23.264;2023-02-10T08:47:41;96111.84;;;15.05;28.82
6345;BME280;3205;42.666;23.264;2023-02-10T08:50:08;96105.38;;;15.23;28.79
6345;BME280;3205;42.666;23.264;2023-02-10T08:52:34;96107.03;;;14.82;28.74
6345;BME280;3205;42.666;23.264;2023-02-10T08:55:02;96106.94;;;14.10;29.11
6345;BME280;3205;42.666;23.264;2023-02-10T08:57:28;96114.22;;;13.24;29.71
6345;BME280;3205;42.666;23.264;2023-02-10T08:59:54;96111.78;;;11.61;31.57
6345;BME280;3205;42.666;23.264;2023-02-10T09:02:22;96110.81;;;13.32;31.22
6345;BME280;3205;42.666;23.264;2023-02-10T09:04:48;96097.19;;;13.89;29.88
6345;BME280;3205;42.666;23.264;2023-02-10T09:07:14;96089.00;;;14.87;29.36
6345;BME280;3205;42.666;23.264;2023-02-10T09:09:42;96092.84;;;15.52;28.65
6345;BME280;3205;42.666;23.264;2023-02-10T09:12:10;96087.72;;;16.17;28.03
6345;BME280;3205;42.666;23.264;2023-02-10T09:14:37;96093.88;;;16.38;27.62
6345;BME280;3205;42.666;23.264;2023-02-10T09:17:03;96084.78;;;16.83;27.63
6345;BME280;3205;42.666;23.264;2023-02-10T09:19:30;96084.25;;;16.89;27.39
6345;BME280;3205;42.666;23.264;2023-02-10T09:21:56;96085.78;;;17.34;26.93
6345;BME280;3205;42.666;23.264;2023-02-10T09:24:23;96081.06;;;17.19;26.33
6345;BME280;3205;42.666;23.264;2023-02-10T09:26:49;96078.63;;;17.26;26.83
6345;BME280;3205;42.666;23.264;2023-02-10T09:29:15;96080.34;;;17.43;26.30
6345;BME280;3205;42.666;23.264;2023-02-10T09:31:41;96079.44;;;15.89;26.94
6345;BME280;3205;42.666;23.264;2023-02-10T09:34:08;96079.59;;;14.89;27.84
6345;BME280;3205;42.666;23.264;2023-02-10T09:36:35;96076.00;;;14.85;27.78
6345;BME280;3205;42.666;23.264;2023-02-10T09:39:03;96075.91;;;14.74;27.82
6345;BME280;3205;42.666;23.264;2023-02-10T09:41:41;96069.06;;;14.05;28.24
6345;BME280;3205;42.666;23.264;2023-02-10T09:44:16;96060.69;;;11.61;30.23
6345;BME280;3205;42.666;23.264;2023-02-10T09:50:06;96081.81;;;9.48;33.80
6345;BME280;3205;42.666;23.264;2023-02-10T09:52:48;96065.22;;;9.48;34.18
6345;BME280;3205;42.666;23.264;2023-02-10T09:55:23;96069.91;;;8.85;34.86
6345;BME280;3205;42.666;23.264;2023-02-10T09:57:56;96061.84;;;8.77;35.29
6345;BME280;3205;42.666;23.264;2023-02-10T10:00:28;96062.69;;;7.39;36.93
6345;BME280;3205;42.666;23.264;2023-02-10T10:02:57;96063.19;;;6.88;38.09
6345;BME280;3205;42.666;23.264;2023-02-10T10:05:37;96060.88;;;6.62;38.66
6345;BME280;3205;42.666;23.264;2023-02-10T10:08:13;96050.97;;;6.44;39.64
6345;BME280;3205;42.666;23.264;2023-02-10T10:10:44;96054.16;;;6.11;39.68
6345;BME280;3205;42.666;23.264;2023-02-10T10:13:14;96047.59;;;5.84;40.46
6345;BME280;3205;42.666;23.264;2023-02-10T10:15:49;96039.06;;;5.13;41.76
6345;BME280;3205;42.666;23.264;2023-02-10T10:18:24;96039.81;;;4.37;43.26
6345;BME280;3205;42.666;23.264;2023-02-10T10:20:56;96038.25;;;4.00;44.27
6345;BME280;3205;42.666;23.264;2023-02-10T10:23:36;96034.03;;;3.94;45.17
6345;BME280;3205;42.666;23.264;2023-02-10T10:26:15;96028.53;;;3.95;45.14
6345;BME280;3205;42.666;23.264;2023-02-10T10:28:54;96021.84;;;3.73;45.15
6345;BME280;3205;42.666;23.264;2023-02-10T10:31:28;96017.50;;;3.26;46.42
6345;BME280;3205;42.666;23.264;2023-02-10T10:33:57;96016.81;;;3.09;47.70
6345;BME280;3205;42.666;23.264;2023-02-10T10:36:31;96014.28;;;3.45;47.44
6345;BME280;3205;42.666;23.264;2023-02-10T10:39:01;96019.88;;;3.90;47.12
6345;BME280;3205;42.666;23.264;2023-02-10T10:41:35;96015.75;;;3.99;46.14
6345;BME280;3205;42.666;23.264;2023-02-10T10:44:03;96003.56;;;3.78;46.54
6345;BME280;3205;42.666;23.264;2023-02-10T10:46:35;96006.56;;;3.60;46.41
6345;BME280;3205;42.666;23.264;2023-02-10T10:49:05;95998.03;;;3.69;47.06
6345;BME280;3205;42.666;23.264;2023-02-10T10:51:31;95992.72;;;3.96;47.38
6345;BME280;3205;42.666;23.264;2023-02-10T10:54:01;95992.88;;;4.21;47.72
6345;BME280;3205;42.666;23.264;2023-02-10T10:56:34;95991.66;;;4.38;46.23
6345;BME280;3205;42.666;23.264;2023-02-10T10:59:10;95991.19;;;4.51;46.32
6345;BME280;3205;42.666;23.264;2023-02-10T11:01:40;95981.81;;;4.60;46.40
6345;BME280;3205;42.666;23.264;2023-02-10T11:04:11;95990.63;;;4.49;45.37
6345;BME280;3205;42.666;23.264;2023-02-10T11:06:39;95987.22;;;3.92;45.60
6345;BME280;3205;42.666;23.264;2023-02-10T11:09:18;95985.09;;;3.89;46.70
6345;BME280;3205;42.666;23.264;2023-02-10T11:11:45;95987.75;;;3.63;46.78
6345;BME280;3205;42.666;23.264;2023-02-10T11:14:16;95983.94;;;3.75;47.37
6345;BME280;3205;42.666;23.264;2023-02-10T11:16:45;95973.59;;;3.90;47.43
6345;BME280;3205;42.666;23.264;2023-02-10T11:19:18;95978.03;;;3.90;47.61
6345;BME280;3205;42.666;23.264;2023-02-10T11:21:45;95969.38;;;3.84;48.49
6345;BME280;3205;42.666;23.264;2023-02-10T11:24:17;95963.84;;;3.81;47.22
6345;BME280;3205;42.666;23.264;2023-02-10T11:26:57;95964.44;;;3.52;48.72
6345;BME280;3205;42.666;23.264;2023-02-10T11:29:24;95966.75;;;3.48;48.12
6345;BME280;3205;42.666;23.264;2023-02-10T11:31:51;95953.59;;;3.38;48.49
6345;BME280;3205;42.666;23.264;2023-02-10T11:34:21;95965.47;;;3.19;48.46
6345;BME280;3205;42.666;23.264;2023-02-10T11:36:52;95961.84;;;2.99;49.22
6345;BME280;3205;42.666;23.264;2023-02-10T11:39:23;95957.59;;;3.14;49.22
6345;BME280;3205;42.666;23.264;2023-02-10T11:41:50;95956.63;;;3.25;49.56
6345;BME280;3205;42.666;23.264;2023-02-10T11:44:24;95953.53;;;3.28;49.46
6345;BME280;3205;42.666;23.264;2023-02-10T11:46:55;95943.56;;;3.25;49.23
6345;BME280;3205;42.666;23.264;2023-02-10T11:49:22;95944.59;;;3.24;49.72
6345;BME280;3205;42.666;23.264;2023-02-10T11:51:51;95947.00;;;3.31;49.08
6345;BME280;3205;42.666;23.264;2023-02-10T11:54:21;95952.31;;;3.41;49.28
6345;BME280;3205;42.666;23.264;2023-02-10T11:56:57;95941.09;;;3.45;49.23
6345;BME280;3205;42.666;23.264;2023-02-10T11:59:49;95939.63;;;3.59;49.42
6345;BME280;3205;42.666;23.264;2023-02-10T12:02:22;95932.66;;;3.33;49.02
6345;BME280;3205;42.666;23.264;2023-02-10T12:05:13;95929.38;;;3.16;50.15
6345;BME280;3205;42.666;23.264;2023-02-10T12:07:54;95932.53;;;3.18;49.77
6345;BME280;3205;42.666;23.264;2023-02-10T12:10:27;95925.66;;;3.07;49.47
6345;BME280;3205;42.666;23.264;2023-02-10T12:13:02;95924.72;;;3.23;49.84
6345;BME280;3205;42.666;23.264;2023-02-10T12:15:38;95918.00;;;3.32;49.19
6345;BME280;3205;42.666;23.264;2023-02-10T12:18:20;95913.16;;;3.46;49.52
6345;BME280;3205;42.666;23.264;2023-02-10T12:21:00;95910.13;;;3.64;49.74
6345;BME280;3205;42.666;23.264;2023-02-10T12:23:47;95910.41;;;3.67;49.73
6345;BME280;3205;42.666;23.264;2023-02-10T12:26:24;95907.59;;;3.78;49.67
6345;BME280;3205;42.666;23.264;2023-02-10T12:29:03;95907.94;;;3.92;49.20
6345;BME280;3205;42.666;23.264;2023-02-10T12:31:41;95907.94;;;3.92;49.40
6345;BME280;3205;42.666;23.264;2023-02-10T12:37:21;95902.88;;;3.80;49.97
6345;BME280;3205;42.666;23.264;2023-02-10T12:40:07;95901.63;;;3.83;50.03
6345;BME280;3205;42.666;23.264;2023-02-10T12:42:47;95903.03;;;3.59;50.22
6345;BME280;3205;42.666;23.264;2023-02-10T12:45:24;95900.56;;;3.43;51.15
6345;BME280;3205;42.666;23.264;2023-02-10T12:48:00;95893.22;;;3.40;51.45
6345;BME280;3205;42.666;23.264;2023-02-10T12:50:37;95892.00;;;3.52;50.91
6345;BME280;3205;42.666;23.264;2023-02-10T12:53:11;95889.38;;;3.47;50.99
6345;BME280;3205;42.666;23.264;2023-02-10T12:55:47;95886.00;;;3.52;51.22
6345;BME280;3205;42.666;23.264;2023-02-10T12:58:20;95886.97;;;3.41;50.57
6345;BME280;3205;42.666;23.264;2023-02-10T13:00:49;95892.38;;;3.29;50.96
6345;BME280;3205;42.666;23.264;2023-02-10T13:03:25;95890.81;;;3.28;51.65
6345;BME280;3205;42.666;23.264;2023-02-10T13:05:57;95895.19;;;3.18;51.78
6345;BME280;3205;42.666;23.264;2023-02-10T13:08:30;95895.34;;;3.06;52.02
6345;BME280;3205;42.666;23.264;2023-02-10T13:11:01;95895.06;;;3.08;52.71
6345;BME280;3205;42.666;23.264;2023-02-10T13:13:32;95891.44;;;3.09;52.04
6345;BME280;3205;42.666;23.264;2023-02-10T13:16:06;95886.50;;;3.12;52.21
6345;BME280;3205;42.666;23.264;2023-02-10T13:18:39;95883.19;;;3.27;53.23
6345;BME280;3205;42.666;23.264;2023-02-10T13:21:14;95890.13;;;3.43;53.71
6345;BME280;3205;42.666;23.264;2023-02-10T13:23:47;95896.19;;;3.53;52.42
6345;BME280;3205;42.666;23.264;2023-02-10T13:26:27;95899.66;;;3.64;51.77
6345;BME280;3205;42.666;23.264;2023-02-10T13:29:06;95892.09;;;3.62;51.67